createdAt,value
2018-07-20T00:04:55.672Z,0
2018-07-20T00:09:55.724Z,0
2018-07-20T00:14:55.813Z,0
2018-07-20T00:19:55.736Z,0
2018-07-20T00:24:55.514Z,0
2018-07-20T00:29:55.662Z,0
2018-07-20T00:34:55.710Z,0
2018-07-20T00:39:55.774Z,0
2018-07-20T00:44:55.393Z,0
2018-07-20T00:49:55.610Z,0
2018-07-20T00:54:55.482Z,0
2018-07-20T00:59:55.538Z,0
2018-07-20T01:04:55.483Z,0
2018-07-20T01:09:55.618Z,0
2018-07-20T01:14:55.647Z,0
2018-07-20T01:19:55.679Z,0
2018-07-20T01:24:55.491Z,0
2018-07-20T01:29:55.689Z,0
2018-07-20T01:34:55.456Z,0
2018-07-20T01:39:55.403Z,0
2018-07-20T01:44:55.422Z,0
2018-07-20T01:49:55.452Z,0
2018-07-20T01:54:55.415Z,0
2018-07-20T01:59:55.646Z,0
2018-07-20T02:04:55.316Z,0
2018-07-20T02:09:55.538Z,0
2018-07-20T02:14:55.355Z,0
2018-07-20T02:19:55.427Z,0
2018-07-20T02:24:55.487Z,0
2018-07-20T02:29:55.659Z,0
2018-07-20T02:34:55.323Z,0
2018-07-20T02:39:55.988Z,0
2018-07-20T02:44:55.325Z,0
2018-07-20T02:49:55.420Z,0
2018-07-20T02:54:55.456Z,0
2018-07-20T02:59:55.444Z,0
2018-07-20T03:04:55.403Z,0
2018-07-20T03:09:55.165Z,0
2018-07-20T03:14:55.266Z,0
2018-07-20T03:19:55.245Z,0
2018-07-20T03:24:55.165Z,0
2018-07-20T03:29:55.184Z,0
2018-07-20T03:34:55.156Z,0.8
2018-07-20T03:39:55.509Z,1.7
2018-07-20T03:44:55.312Z,2.5
2018-07-20T03:49:55.166Z,4.2
2018-07-20T03:54:55.373Z,5.8
2018-07-20T03:59:55.456Z,8.3
2018-07-20T04:04:55.244Z,10.8
2018-07-20T04:09:55.381Z,13.3
2018-07-20T04:14:55.198Z,16.7
2018-07-20T04:19:55.158Z,19.2
2018-07-20T04:24:55.261Z,22.5
2018-07-20T04:29:55.427Z,25.8
2018-07-20T04:34:55.363Z,29.2
2018-07-20T04:39:55.343Z,32.5
2018-07-20T04:44:55.076Z,35.8
2018-07-20T04:49:55.386Z,39.2
2018-07-20T04:54:55.363Z,41.7
2018-07-20T04:59:55.082Z,45
2018-07-20T05:04:55.308Z,48.3
2018-07-20T05:09:55.325Z,51.7
2018-07-20T05:14:55.216Z,55
2018-07-20T05:19:55.315Z,56.7
2018-07-20T05:24:55.205Z,61.7
2018-07-20T05:29:55.006Z,65
2018-07-20T05:34:54.950Z,68.3
2018-07-20T05:39:55.246Z,71.7
2018-07-20T05:44:55.049Z,75.8
2018-07-20T05:49:55.245Z,79.2
2018-07-20T05:54:55.283Z,81.7
2018-07-20T05:59:55.341Z,77.5
2018-07-20T06:04:55.141Z,88.3
2018-07-20T06:09:55.292Z,91.7
2018-07-20T06:14:54.945Z,96.7
2018-07-20T06:19:55.035Z,99.2
2018-07-20T06:24:55.084Z,105.8
2018-07-20T06:29:55.162Z,105.8
2018-07-20T06:34:54.937Z,106.7
2018-07-20T06:39:55.014Z,114.2
2018-07-20T06:44:54.953Z,118.3
2018-07-20T06:49:54.928Z,118.3
2018-07-20T06:54:55.176Z,114.2
2018-07-20T06:59:54.955Z,118.3
2018-07-20T07:04:55.142Z,113.3
2018-07-20T07:09:54.946Z,114.2
2018-07-20T07:14:55.119Z,115.8
2018-07-20T07:19:54.802Z,120
2018-07-20T07:24:54.892Z,130
2018-07-20T07:29:54.813Z,131.7
2018-07-20T07:34:55.128Z,130.8
2018-07-20T07:39:54.959Z,132.5
2018-07-20T07:44:55.134Z,129.2
2018-07-20T07:49:55.115Z,128.3
2018-07-20T07:54:54.902Z,129.2
2018-07-20T07:59:54.795Z,143.3
2018-07-20T08:04:55.020Z,150.8
2018-07-20T08:09:55.138Z,160
2018-07-20T08:14:54.926Z,156.7
2018-07-20T08:19:54.742Z,169.2
2018-07-20T08:24:54.896Z,181.7
2018-07-20T08:29:54.995Z,189.2
2018-07-20T08:34:54.837Z,207.5
2018-07-20T08:39:54.953Z,221.7
2018-07-20T08:44:54.980Z,233.3
2018-07-20T08:49:54.681Z,260.8
2018-07-20T08:54:54.890Z,264.2
2018-07-20T08:59:54.847Z,300
2018-07-20T09:04:54.708Z,337.5
2018-07-20T09:09:54.906Z,378.3
2018-07-20T09:14:54.798Z,407.5
2018-07-20T09:19:54.763Z,400
2018-07-20T09:24:54.939Z,432.5
2018-07-20T09:29:54.973Z,434.2
2018-07-20T09:34:54.647Z,427.5
2018-07-20T09:39:54.643Z,427.5
2018-07-20T09:44:54.944Z,446.7
2018-07-20T09:49:54.585Z,467.5
2018-07-20T09:54:54.845Z,478.3
2018-07-20T09:59:54.793Z,477.5
2018-07-20T10:04:54.880Z,493.3
2018-07-20T10:09:54.744Z,267.5
2018-07-20T10:14:54.525Z,490
2018-07-20T10:19:54.898Z,515.8
2018-07-20T10:24:54.875Z,517.5
2018-07-20T10:29:54.913Z,535
2018-07-20T10:34:54.555Z,546.7
2018-07-20T10:39:54.487Z,569.2
2018-07-20T10:44:54.835Z,595
2018-07-20T10:49:54.881Z,630.8
2018-07-20T10:54:54.589Z,654.2
2018-07-20T10:59:54.602Z,686.7
2018-07-20T11:04:54.852Z,703.3
2018-07-20T11:09:54.520Z,649.2
2018-07-20T11:14:54.819Z,623.3
2018-07-20T11:19:54.594Z,794.2
2018-07-20T11:24:54.700Z,330
2018-07-20T11:29:54.660Z,618.3
2018-07-20T11:34:54.676Z,851.7
2018-07-20T11:39:54.737Z,833.3
2018-07-20T11:44:54.770Z,754.2
2018-07-20T11:49:54.688Z,893.3
2018-07-20T11:54:54.519Z,910
2018-07-20T11:59:54.679Z,838.3
2018-07-20T12:04:54.616Z,510
2018-07-20T12:09:54.413Z,396.7
2018-07-20T12:14:54.536Z,486.7
2018-07-20T12:19:54.641Z,862.5
2018-07-20T12:24:54.713Z,580.8
2018-07-20T12:29:54.651Z,580
2018-07-20T12:34:54.315Z,877.5
2018-07-20T12:39:54.706Z,995
2018-07-20T12:44:54.317Z,1016.7
2018-07-20T12:49:54.548Z,866.7
2018-07-20T12:54:54.402Z,917.5
2018-07-20T12:59:54.663Z,1028.3
2018-07-20T13:04:54.505Z,998.3
2018-07-20T13:09:54.598Z,1038.3
2018-07-20T13:14:54.682Z,1104.2
2018-07-20T13:19:54.249Z,1101.7
2018-07-20T13:24:54.289Z,1186.7
2018-07-20T13:29:54.497Z,681.7
2018-07-20T13:34:54.372Z,553.3
2018-07-20T13:39:54.525Z,870
2018-07-20T13:44:54.224Z,712.5
2018-07-20T13:49:54.392Z,1044.2
2018-07-20T13:54:54.214Z,1013.3
2018-07-20T13:59:54.343Z,1009.2
2018-07-20T14:04:54.168Z,1271.7
2018-07-20T14:09:54.335Z,1421.7
2018-07-20T14:14:54.393Z,1440.8
2018-07-20T14:19:54.551Z,1440.8
2018-07-20T14:24:54.355Z,1365.8
2018-07-20T14:29:54.474Z,1370.8
2018-07-20T14:34:54.164Z,1336.7
2018-07-20T14:39:54.163Z,1233.3
2018-07-20T14:44:54.507Z,1250.8
2018-07-20T14:49:54.260Z,1255
2018-07-20T14:55:16.235Z,1304.2
2018-07-20T15:00:03.447Z,1230.8
2018-07-20T15:09:54.327Z,1200.8
2018-07-20T15:14:54.476Z,1125.8
2018-07-20T15:19:54.068Z,1088.3
2018-07-20T15:24:54.500Z,998.3
2018-07-20T15:29:54.289Z,1080
2018-07-20T15:34:54.041Z,1093.3
2018-07-20T15:39:54.311Z,955
2018-07-20T15:44:54.396Z,883.3
2018-07-20T15:49:54.391Z,860.8
2018-07-20T15:54:54.156Z,408.3
2018-07-20T15:59:54.221Z,417.5
2018-07-20T16:04:54.090Z,368.3
2018-07-20T16:09:54.331Z,380
2018-07-20T16:14:54.027Z,362.5
2018-07-20T16:19:54.207Z,292.5
2018-07-20T16:24:53.990Z,238.3
2018-07-20T16:29:54.198Z,225.8
2018-07-20T16:34:54.229Z,201.7
2018-07-20T16:39:54.292Z,181.7
2018-07-20T16:44:54.179Z,150
2018-07-20T16:49:53.960Z,131.7
2018-07-20T16:54:54.086Z,120.8
2018-07-20T16:59:54.296Z,116.7
2018-07-20T17:04:53.951Z,112.5
2018-07-20T17:09:53.916Z,106.7
2018-07-20T17:14:54.226Z,103.3
2018-07-20T17:19:54.214Z,99.2
2018-07-20T17:24:54.207Z,92.5
2018-07-20T17:29:54.305Z,84.2
2018-07-20T17:34:54.175Z,82.5
2018-07-20T17:39:54.220Z,77.5
2018-07-20T17:44:54.042Z,69.2
2018-07-20T17:49:54.285Z,64.2
2018-07-20T17:54:54.015Z,61.7
2018-07-20T17:59:54.198Z,56.7
2018-07-20T18:04:53.828Z,53.3
2018-07-20T18:09:54.134Z,51.7
2018-07-20T18:14:53.996Z,50
2018-07-20T18:19:54.101Z,48.3
2018-07-20T18:24:53.871Z,46.7
2018-07-20T18:29:54.155Z,43.3
2018-07-20T18:34:54.012Z,40
2018-07-20T18:39:53.995Z,37.5
2018-07-20T18:44:54.163Z,35.8
2018-07-20T18:49:53.778Z,35
2018-07-20T18:54:54.017Z,34.2
2018-07-20T18:59:54.021Z,32.5
2018-07-20T19:04:53.954Z,30.8
2018-07-20T19:09:54.008Z,29.2
2018-07-20T19:14:53.876Z,25
2018-07-20T19:19:53.800Z,20.8
2018-07-20T19:24:53.772Z,17.5
2018-07-20T19:29:54.070Z,13.3
2018-07-20T19:34:54.019Z,10
2018-07-20T19:39:54.001Z,7.5
2018-07-20T19:44:53.671Z,5
2018-07-20T19:49:53.909Z,3.3
2018-07-20T19:54:53.629Z,1.7
2018-07-20T19:59:54.031Z,0.8
2018-07-20T20:04:54.011Z,0
2018-07-20T20:09:53.785Z,0
2018-07-20T20:14:53.757Z,0
2018-07-20T20:19:53.842Z,0
2018-07-20T20:24:53.918Z,0
2018-07-20T20:29:53.964Z,0
2018-07-20T20:34:54.006Z,0
2018-07-20T20:39:53.902Z,0
2018-07-20T20:44:53.711Z,0
2018-07-20T20:49:53.998Z,0
2018-07-20T20:54:53.894Z,0
2018-07-20T20:59:53.629Z,0
2018-07-20T21:04:53.829Z,0
2018-07-20T21:09:53.839Z,0
2018-07-20T21:14:53.741Z,0
2018-07-20T21:19:53.719Z,0
2018-07-20T21:24:53.746Z,0
2018-07-20T21:29:53.738Z,0
2018-07-20T21:34:53.861Z,0
2018-07-20T21:39:53.789Z,0
2018-07-20T21:44:53.521Z,0
2018-07-20T21:49:53.748Z,0
2018-07-20T21:54:53.845Z,0
2018-07-20T21:59:53.728Z,0
2018-07-20T22:04:53.801Z,0
2018-07-20T22:09:53.693Z,0
2018-07-20T22:14:53.531Z,0
2018-07-20T22:19:53.717Z,0
2018-07-20T22:24:53.657Z,0
2018-07-20T22:29:53.465Z,0
2018-07-20T22:34:53.672Z,0
2018-07-20T22:39:53.581Z,0
2018-07-20T22:44:53.429Z,0
2018-07-20T22:49:53.564Z,0
2018-07-20T22:54:53.510Z,0
2018-07-20T22:59:53.722Z,0
2018-07-20T23:04:53.371Z,0
2018-07-20T23:09:53.562Z,0
2018-07-20T23:14:53.537Z,0
2018-07-20T23:19:53.690Z,0
2018-07-20T23:24:53.402Z,0
2018-07-20T23:29:53.558Z,0
2018-07-20T23:34:53.424Z,0
2018-07-20T23:39:53.590Z,0
2018-07-20T23:44:53.382Z,0
2018-07-20T23:49:53.397Z,0
2018-07-20T23:54:53.481Z,0
2018-07-20T23:59:53.367Z,0
